EDV5470 KATL-KCHA
Flight info
| Callsign | EDV5470 |
|---|---|
| Flight time | 0h 22m |
| Altitude | 16000 |
| Route | PENCL2 PENCL |
| Aircraft | CRJ7/M-SDFGIRWY/S |
Departure
| Time | 2026-05-04 00:54 |
|---|---|
| Airport | Hartsfield Jackson Atlanta International Airport (KATL) |
Arrival
| Time | 2026-05-04 01:17 |
|---|---|
| Airport | Chattanooga Metropolitan Airport (Lovell Field) (KCHA) |
| Time | Latitude | Longitude | Altitude | Speed | Heading |
|---|---|---|---|---|---|
| 2026-05-04 00:33 | 33.64353 | -84.42518 | 1034 ft | 0 kts | 271° |
| 2026-05-04 00:46 | 33.64353 | -84.42516 | 1034 ft | 1 kts | 271° |
| 2026-05-04 00:46 | 33.64352 | -84.42497 | 1034 ft | 3 kts | 273° |
| 2026-05-04 00:47 | 33.64350 | -84.42473 | 1034 ft | 3 kts | 278° |
| 2026-05-04 00:47 | 33.64346 | -84.42449 | 1034 ft | 3 kts | 288° |
| 2026-05-04 00:47 | 33.64343 | -84.42439 | 1034 ft | 3 kts | 297° |
| 2026-05-04 00:47 | 33.64334 | -84.42425 | 1034 ft | 3 kts | 326° |
| 2026-05-04 00:48 | 33.64323 | -84.42421 | 1034 ft | 1 kts | 360° |
| 2026-05-04 00:48 | 33.64322 | -84.42421 | 1034 ft | 1 kts | 360° |
| 2026-05-04 00:49 | 33.64324 | -84.42421 | 1034 ft | 3 kts | 0° |
| 2026-05-04 00:50 | 33.64334 | -84.42406 | 1034 ft | 5 kts | 95° |
| 2026-05-04 00:50 | 33.64305 | -84.42371 | 1034 ft | 9 kts | 141° |
| 2026-05-04 00:50 | 33.64264 | -84.42291 | 1034 ft | 14 kts | 94° |
| 2026-05-04 00:50 | 33.64326 | -84.42239 | 1034 ft | 13 kts | 359° |
| 2026-05-04 00:51 | 33.64377 | -84.42240 | 1033 ft | 14 kts | 359° |
| 2026-05-04 00:51 | 33.64477 | -84.42230 | 1033 ft | 15 kts | 25° |
| 2026-05-04 00:51 | 33.64536 | -84.42122 | 1033 ft | 18 kts | 72° |
| 2026-05-04 00:51 | 33.64542 | -84.41970 | 1033 ft | 19 kts | 91° |
| 2026-05-04 00:52 | 33.64543 | -84.41812 | 1034 ft | 21 kts | 89° |
| 2026-05-04 00:52 | 33.64543 | -84.41623 | 1034 ft | 23 kts | 90° |
| 2026-05-04 00:52 | 33.64542 | -84.41431 | 1034 ft | 23 kts | 90° |
| 2026-05-04 00:52 | 33.64543 | -84.41236 | 1034 ft | 23 kts | 90° |
| 2026-05-04 00:53 | 33.64543 | -84.41040 | 1034 ft | 24 kts | 90° |
| 2026-05-04 00:53 | 33.64547 | -84.40841 | 1033 ft | 24 kts | 78° |
| 2026-05-04 00:53 | 33.64570 | -84.40644 | 1033 ft | 22 kts | 89° |
| 2026-05-04 00:53 | 33.64655 | -84.40593 | 1031 ft | 20 kts | 309° |
| 2026-05-04 00:54 | 33.64680 | -84.40871 | 1033 ft | 64 kts | 270° |
| 2026-05-04 00:54 | 33.64680 | -84.41713 | 1034 ft | 135 kts | 270° |
| 2026-05-04 00:54 | 33.64687 | -84.43019 | 1360 ft | 166 kts | 271° |
| 2026-05-04 00:54 | 33.64772 | -84.44465 | 2166 ft | 173 kts | 281° |
| 2026-05-04 00:55 | 33.65129 | -84.45896 | 2745 ft | 189 kts | 291° |
| 2026-05-04 00:55 | 33.65673 | -84.47453 | 2948 ft | 216 kts | 294° |
| 2026-05-04 00:55 | 33.66310 | -84.49191 | 3190 ft | 238 kts | 293° |
| 2026-05-04 00:55 | 33.66997 | -84.51098 | 3650 ft | 255 kts | 292° |
| 2026-05-04 00:56 | 33.67670 | -84.53089 | 4518 ft | 259 kts | 291° |
| 2026-05-04 00:56 | 33.68339 | -84.55119 | 5374 ft | 263 kts | 292° |
| 2026-05-04 00:56 | 33.69389 | -84.56904 | 6177 ft | 267 kts | 323° |
| 2026-05-04 00:56 | 33.71084 | -84.57824 | 6996 ft | 270 kts | 343° |
| 2026-05-04 00:57 | 33.72932 | -84.58270 | 7835 ft | 273 kts | 354° |
| 2026-05-04 00:57 | 33.74836 | -84.58334 | 8682 ft | 275 kts | 359° |
| 2026-05-04 00:57 | 33.76773 | -84.58271 | 9396 ft | 285 kts | 1° |
| 2026-05-04 00:57 | 33.78856 | -84.58177 | 9552 ft | 313 kts | 1° |
| 2026-05-04 00:58 | 33.81078 | -84.58095 | 9827 ft | 334 kts | 360° |
| 2026-05-04 00:58 | 33.83469 | -84.58060 | 10176 ft | 352 kts | 359° |
| 2026-05-04 00:58 | 33.85942 | -84.58345 | 10646 ft | 361 kts | 347° |
| 2026-05-04 00:58 | 33.88384 | -84.59103 | 11355 ft | 364 kts | 342° |
| 2026-05-04 00:59 | 33.90822 | -84.59981 | 12060 ft | 368 kts | 342° |
| 2026-05-04 00:59 | 33.93301 | -84.60865 | 12766 ft | 372 kts | 342° |
| 2026-05-04 00:59 | 33.95799 | -84.61734 | 13519 ft | 376 kts | 343° |
| 2026-05-04 00:59 | 33.98333 | -84.62559 | 14189 ft | 380 kts | 343° |
| 2026-05-04 01:00 | 34.00896 | -84.63392 | 14801 ft | 383 kts | 343° |
| 2026-05-04 01:00 | 34.03488 | -84.64231 | 15385 ft | 387 kts | 343° |
| 2026-05-04 01:00 | 34.06124 | -84.65083 | 15735 ft | 396 kts | 343° |
| 2026-05-04 01:00 | 34.08809 | -84.65955 | 15899 ft | 403 kts | 343° |
| 2026-05-04 01:01 | 34.11542 | -84.66839 | 15968 ft | 410 kts | 343° |
| 2026-05-04 01:01 | 34.14232 | -84.67708 | 15990 ft | 390 kts | 343° |
| 2026-05-04 01:01 | 34.16798 | -84.68508 | 15993 ft | 382 kts | 344° |
| 2026-05-04 01:01 | 34.19369 | -84.69290 | 15997 ft | 382 kts | 343° |
| 2026-05-04 01:02 | 34.21968 | -84.70127 | 16005 ft | 391 kts | 343° |
| 2026-05-04 01:02 | 34.24630 | -84.70988 | 16005 ft | 399 kts | 343° |
| 2026-05-04 01:02 | 34.27289 | -84.72004 | 16007 ft | 401 kts | 338° |
| 2026-05-04 01:02 | 34.29830 | -84.73274 | 16009 ft | 392 kts | 335° |
| 2026-05-04 01:03 | 34.32342 | -84.74579 | 15990 ft | 395 kts | 335° |
| 2026-05-04 01:03 | 34.34894 | -84.75880 | 15988 ft | 399 kts | 336° |
| 2026-05-04 01:03 | 34.37481 | -84.77139 | 15991 ft | 402 kts | 336° |
| 2026-05-04 01:03 | 34.40091 | -84.78401 | 15993 ft | 403 kts | 337° |
| 2026-05-04 01:04 | 34.42692 | -84.79657 | 15986 ft | 400 kts | 337° |
| 2026-05-04 01:04 | 34.45236 | -84.80890 | 15989 ft | 398 kts | 336° |
| 2026-05-04 01:04 | 34.47796 | -84.82133 | 15989 ft | 395 kts | 337° |
| 2026-05-04 01:04 | 34.50348 | -84.83370 | 15988 ft | 393 kts | 336° |
| 2026-05-04 01:05 | 34.52883 | -84.84598 | 15992 ft | 392 kts | 337° |
| 2026-05-04 01:05 | 34.55410 | -84.85824 | 15992 ft | 390 kts | 337° |
| 2026-05-04 01:05 | 34.57935 | -84.87052 | 15989 ft | 389 kts | 337° |
| 2026-05-04 01:05 | 34.60451 | -84.88271 | 16005 ft | 388 kts | 337° |
| 2026-05-04 01:06 | 34.62953 | -84.89489 | 15935 ft | 389 kts | 337° |
| 2026-05-04 01:06 | 34.65471 | -84.90708 | 15438 ft | 387 kts | 337° |
| 2026-05-04 01:06 | 34.67971 | -84.91923 | 14829 ft | 385 kts | 337° |
| 2026-05-04 01:06 | 34.70439 | -84.93129 | 14257 ft | 377 kts | 337° |
| 2026-05-04 01:07 | 34.72847 | -84.94301 | 13693 ft | 368 kts | 337° |
| 2026-05-04 01:07 | 34.75198 | -84.95448 | 13081 ft | 360 kts | 337° |
| 2026-05-04 01:07 | 34.77473 | -84.96560 | 12500 ft | 353 kts | 337° |
| 2026-05-04 01:07 | 34.79734 | -84.97664 | 11915 ft | 347 kts | 337° |
| 2026-05-04 01:08 | 34.81956 | -84.98747 | 11342 ft | 339 kts | 337° |
| 2026-05-04 01:08 | 34.84107 | -84.99802 | 10777 ft | 328 kts | 337° |
| 2026-05-04 01:08 | 34.86198 | -85.00824 | 10289 ft | 318 kts | 338° |
| 2026-05-04 01:08 | 34.88215 | -85.01811 | 9835 ft | 308 kts | 337° |
| 2026-05-04 01:09 | 34.90176 | -85.02763 | 9349 ft | 299 kts | 339° |
| 2026-05-04 01:09 | 34.92180 | -85.03237 | 9011 ft | 289 kts | 356° |
| 2026-05-04 01:09 | 34.94158 | -85.03161 | 8699 ft | 280 kts | 2° |
| 2026-05-04 01:09 | 34.96071 | -85.02961 | 8360 ft | 273 kts | 4° |
| 2026-05-04 01:10 | 34.97951 | -85.02722 | 8005 ft | 270 kts | 4° |
| 2026-05-04 01:10 | 34.99815 | -85.02461 | 7648 ft | 268 kts | 5° |
| 2026-05-04 01:10 | 35.01700 | -85.02185 | 7296 ft | 284 kts | 5° |
| 2026-05-04 01:10 | 35.03701 | -85.01890 | 6972 ft | 289 kts | 5° |
| 2026-05-04 01:11 | 35.05679 | -85.01595 | 6636 ft | 283 kts | 5° |
| 2026-05-04 01:11 | 35.07641 | -85.01302 | 6283 ft | 292 kts | 5° |
| 2026-05-04 01:11 | 35.09659 | -85.01001 | 5931 ft | 285 kts | 5° |
| 2026-05-04 01:11 | 35.11584 | -85.00721 | 5577 ft | 279 kts | 4° |
| 2026-05-04 01:12 | 35.13465 | -85.00969 | 5181 ft | 270 kts | 334° |
| 2026-05-04 01:12 | 35.14863 | -85.02403 | 4840 ft | 262 kts | 300° |
| 2026-05-04 01:12 | 35.15465 | -85.04469 | 4480 ft | 257 kts | 282° |
| 2026-05-04 01:12 | 35.15860 | -85.06591 | 4106 ft | 255 kts | 281° |
| 2026-05-04 01:13 | 35.16162 | -85.08723 | 3673 ft | 255 kts | 276° |
| 2026-05-04 01:13 | 35.16133 | -85.10871 | 3211 ft | 255 kts | 253° |
| 2026-05-04 01:13 | 35.15353 | -85.12808 | 2822 ft | 250 kts | 239° |
| 2026-05-04 01:13 | 35.14452 | -85.14543 | 2626 ft | 232 kts | 237° |
| 2026-05-04 01:14 | 35.13587 | -85.16077 | 2538 ft | 202 kts | 232° |
| 2026-05-04 01:14 | 35.12550 | -85.16938 | 2512 ft | 163 kts | 203° |
| 2026-05-04 01:14 | 35.11626 | -85.17363 | 2492 ft | 120 kts | 202° |
| 2026-05-04 01:14 | 35.10834 | -85.17676 | 2322 ft | 131 kts | 200° |
| 2026-05-04 01:15 | 35.10008 | -85.17928 | 1928 ft | 115 kts | 194° |
| 2026-05-04 01:15 | 35.09232 | -85.18171 | 1539 ft | 126 kts | 200° |
| 2026-05-04 01:15 | 35.08405 | -85.18526 | 1477 ft | 121 kts | 197° |
| 2026-05-04 01:15 | 35.07596 | -85.18825 | 1326 ft | 126 kts | 198° |
| 2026-05-04 01:16 | 35.06734 | -85.19122 | 1184 ft | 127 kts | 196° |
| 2026-05-04 01:16 | 35.05894 | -85.19430 | 1022 ft | 132 kts | 196° |
| 2026-05-04 01:16 | 35.05056 | -85.19738 | 854 ft | 120 kts | 196° |
| 2026-05-04 01:16 | 35.04273 | -85.20021 | 723 ft | 116 kts | 197° |
| 2026-05-04 01:17 | 35.03632 | -85.20254 | 687 ft | 70 kts | 197° |
| 2026-05-04 01:17 | 35.03365 | -85.20344 | 684 ft | 20 kts | 177° |
| 2026-05-04 01:17 | 35.03309 | -85.20272 | 687 ft | 5 kts | 108° |
| 2026-05-04 01:17 | 35.03299 | -85.20232 | 686 ft | 5 kts | 108° |
| 2026-05-04 01:18 | 35.03277 | -85.20138 | 685 ft | 15 kts | 97° |
| 2026-05-04 01:18 | 35.03324 | -85.20096 | 687 ft | 14 kts | 2° |
| 2026-05-04 01:18 | 35.03424 | -85.20066 | 686 ft | 15 kts | 19° |
| 2026-05-04 01:18 | 35.03574 | -85.20010 | 687 ft | 27 kts | 17° |
| 2026-05-04 01:19 | 35.03645 | -85.19906 | 687 ft | 17 kts | 96° |
| 2026-05-04 01:19 | 35.03669 | -85.19795 | 684 ft | 5 kts | 20° |
| 2026-05-04 01:19 | 35.03701 | -85.19775 | 689 ft | 6 kts | 28° |
| 2026-05-04 01:19 | 35.03709 | -85.19770 | 687 ft | 0 kts | 28° |